sensor_id;sensor_type;location;lat;lon;timestamp;temperature;humidity
7738;DHT22;29398;45.328;5.558;2022-11-24T00:00:34;7.10;99.90
7738;DHT22;29398;45.328;5.558;2022-11-24T00:01:35;7.10;99.90
7738;DHT22;29398;45.328;5.558;2022-11-24T00:02:37;7.10;99.90
7738;DHT22;29398;45.328;5.558;2022-11-24T00:03:38;7.10;99.90
7738;DHT22;29398;45.328;5.558;2022-11-24T00:04:40;7.10;99.90
7738;DHT22;29398;45.328;5.558;2022-11-24T00:05:41;7.10;99.90
7738;DHT22;29398;45.328;5.558;2022-11-24T00:06:43;7.20;99.90
7738;DHT22;29398;45.328;5.558;2022-11-24T00:07:45;7.10;99.90
7738;DHT22;29398;45.328;5.558;2022-11-24T00:08:47;7.10;99.90
7738;DHT22;29398;45.328;5.558;2022-11-24T00:09:48;7.10;99.90
7738;DHT22;29398;45.328;5.558;2022-11-24T00:10:51;7.10;99.90
7738;DHT22;29398;45.328;5.558;2022-11-24T00:11:52;7.10;99.90
7738;DHT22;29398;45.328;5.558;2022-11-24T00:12:54;7.10;99.90
7738;DHT22;29398;45.328;5.558;2022-11-24T00:13:56;7.10;99.90
7738;DHT22;29398;45.328;5.558;2022-11-24T00:14:59;7.10;99.90
7738;DHT22;29398;45.328;5.558;2022-11-24T00:16:04;7.10;99.90
7738;DHT22;29398;45.328;5.558;2022-11-24T00:17:06;7.10;99.90
7738;DHT22;29398;45.328;5.558;2022-11-24T00:18:08;7.20;99.90
7738;DHT22;29398;45.328;5.558;2022-11-24T00:19:10;7.20;99.90
7738;DHT22;29398;45.328;5.558;2022-11-24T00:20:12;7.20;99.90
7738;DHT22;29398;45.328;5.558;2022-11-24T00:21:16;7.30;99.90
7738;DHT22;29398;45.328;5.558;2022-11-24T00:22:18;7.30;99.90
7738;DHT22;29398;45.328;5.558;2022-11-24T00:23:20;7.30;99.90
7738;DHT22;29398;45.328;5.558;2022-11-24T00:24:22;7.30;99.90
7738;DHT22;29398;45.328;5.558;2022-11-24T00:25:23;7.40;99.90
7738;DHT22;29398;45.328;5.558;2022-11-24T00:26:28;7.40;99.90
7738;DHT22;29398;45.328;5.558;2022-11-24T00:27:29;7.40;99.90
7738;DHT22;29398;45.328;5.558;2022-11-24T00:28:32;7.40;99.90
7738;DHT22;29398;45.328;5.558;2022-11-24T00:29:33;7.40;99.90
7738;DHT22;29398;45.328;5.558;2022-11-24T00:30:35;7.40;99.90
7738;DHT22;29398;45.328;5.558;2022-11-24T00:31:38;7.50;99.90
7738;DHT22;29398;45.328;5.558;2022-11-24T00:32:41;7.50;99.90
7738;DHT22;29398;45.328;5.558;2022-11-24T00:33:42;7.50;99.90
7738;DHT22;29398;45.328;5.558;2022-11-24T00:34:47;7.50;99.90
7738;DHT22;29398;45.328;5.558;2022-11-24T00:35:53;7.50;99.90
7738;DHT22;29398;45.328;5.558;2022-11-24T00:36:55;7.50;99.90
7738;DHT22;29398;45.328;5.558;2022-11-24T00:37:57;7.50;99.90
7738;DHT22;29398;45.328;5.558;2022-11-24T00:39:00;7.50;99.90
7738;DHT22;29398;45.328;5.558;2022-11-24T00:40:02;7.50;99.90
7738;DHT22;29398;45.328;5.558;2022-11-24T00:41:04;7.50;99.90
7738;DHT22;29398;45.328;5.558;2022-11-24T00:42:08;7.50;99.90
7738;DHT22;29398;45.328;5.558;2022-11-24T00:43:09;7.50;99.90
7738;DHT22;29398;45.328;5.558;2022-11-24T00:44:11;7.50;99.90
7738;DHT22;29398;45.328;5.558;2022-11-24T00:45:13;7.50;99.90
7738;DHT22;29398;45.328;5.558;2022-11-24T00:46:14;7.50;99.90
7738;DHT22;29398;45.328;5.558;2022-11-24T00:47:15;7.50;99.90
7738;DHT22;29398;45.328;5.558;2022-11-24T00:48:17;7.50;99.90
7738;DHT22;29398;45.328;5.558;2022-11-24T00:49:19;7.50;99.90
7738;DHT22;29398;45.328;5.558;2022-11-24T00:50:19;7.40;99.90
7738;DHT22;29398;45.328;5.558;2022-11-24T00:51:24;7.40;99.90
7738;DHT22;29398;45.328;5.558;2022-11-24T00:52:26;7.40;99.90
7738;DHT22;29398;45.328;5.558;2022-11-24T00:53:29;7.40;99.90
7738;DHT22;29398;45.328;5.558;2022-11-24T00:54:30;7.30;99.90
7738;DHT22;29398;45.328;5.558;2022-11-24T00:55:32;7.30;99.90
7738;DHT22;29398;45.328;5.558;2022-11-24T00:56:33;7.30;99.90
7738;DHT22;29398;45.328;5.558;2022-11-24T00:57:36;7.30;99.90
7738;DHT22;29398;45.328;5.558;2022-11-24T00:58:38;7.30;99.90
7738;DHT22;29398;45.328;5.558;2022-11-24T00:59:40;7.30;99.90
7738;DHT22;29398;45.328;5.558;2022-11-24T01:00:41;7.20;99.90
7738;DHT22;29398;45.328;5.558;2022-11-24T01:01:46;7.20;99.90
7738;DHT22;29398;45.328;5.558;2022-11-24T01:02:47;7.20;99.90
7738;DHT22;29398;45.328;5.558;2022-11-24T01:03:49;7.20;99.90
7738;DHT22;29398;45.328;5.558;2022-11-24T01:04:50;7.20;99.90
7738;DHT22;29398;45.328;5.558;2022-11-24T01:05:52;7.20;99.90
7738;DHT22;29398;45.328;5.558;2022-11-24T01:06:53;7.20;99.90
7738;DHT22;29398;45.328;5.558;2022-11-24T01:07:56;7.20;99.90
7738;DHT22;29398;45.328;5.558;2022-11-24T01:08:57;7.10;99.90
7738;DHT22;29398;45.328;5.558;2022-11-24T01:09:59;7.10;99.90
7738;DHT22;29398;45.328;5.558;2022-11-24T01:11:13;7.20;99.90
7738;DHT22;29398;45.328;5.558;2022-11-24T01:12:15;7.10;99.90
7738;DHT22;29398;45.328;5.558;2022-11-24T01:13:18;7.10;99.90
7738;DHT22;29398;45.328;5.558;2022-11-24T01:14:21;7.10;99.90
7738;DHT22;29398;45.328;5.558;2022-11-24T01:15:23;7.10;99.90
7738;DHT22;29398;45.328;5.558;2022-11-24T01:16:28;7.10;99.90
7738;DHT22;29398;45.328;5.558;2022-11-24T01:17:30;7.10;99.90
7738;DHT22;29398;45.328;5.558;2022-11-24T01:18:32;7.00;99.90
7738;DHT22;29398;45.328;5.558;2022-11-24T01:19:33;7.00;99.90
7738;DHT22;29398;45.328;5.558;2022-11-24T01:20:35;7.00;99.90
7738;DHT22;29398;45.328;5.558;2022-11-24T01:21:37;7.00;99.90
7738;DHT22;29398;45.328;5.558;2022-11-24T01:22:39;7.00;99.90
7738;DHT22;29398;45.328;5.558;2022-11-24T01:23:41;6.90;99.90
7738;DHT22;29398;45.328;5.558;2022-11-24T01:24:43;6.90;99.90
7738;DHT22;29398;45.328;5.558;2022-11-24T01:25:45;6.20;99.90
7738;DHT22;29398;45.328;5.558;2022-11-24T01:26:47;6.90;99.90
7738;DHT22;29398;45.328;5.558;2022-11-24T01:27:48;6.90;99.90
7738;DHT22;29398;45.328;5.558;2022-11-24T01:28:53;6.80;99.90
7738;DHT22;29398;45.328;5.558;2022-11-24T01:29:55;6.90;99.90
7738;DHT22;29398;45.328;5.558;2022-11-24T01:30:57;6.90;99.90
7738;DHT22;29398;45.328;5.558;2022-11-24T01:31:58;7.00;99.90
7738;DHT22;29398;45.328;5.558;2022-11-24T01:33:00;7.00;99.90
7738;DHT22;29398;45.328;5.558;2022-11-24T01:34:01;7.00;99.90
7738;DHT22;29398;45.328;5.558;2022-11-24T01:35:04;7.10;99.90
7738;DHT22;29398;45.328;5.558;2022-11-24T01:36:06;7.10;99.90
7738;DHT22;29398;45.328;5.558;2022-11-24T01:37:08;7.10;99.90
7738;DHT22;29398;45.328;5.558;2022-11-24T01:38:09;7.10;99.90
7738;DHT22;29398;45.328;5.558;2022-11-24T01:39:11;7.10;99.90
7738;DHT22;29398;45.328;5.558;2022-11-24T01:40:13;7.10;99.90
7738;DHT22;29398;45.328;5.558;2022-11-24T01:41:17;7.10;99.90
7738;DHT22;29398;45.328;5.558;2022-11-24T01:42:19;7.10;99.90
7738;DHT22;29398;45.328;5.558;2022-11-24T01:43:21;7.10;99.90
7738;DHT22;29398;45.328;5.558;2022-11-24T01:44:25;7.10;99.90
7738;DHT22;29398;45.328;5.558;2022-11-24T01:45:33;7.10;99.90
7738;DHT22;29398;45.328;5.558;2022-11-24T01:46:39;7.00;99.90
7738;DHT22;29398;45.328;5.558;2022-11-24T01:47:42;7.00;99.90
7738;DHT22;29398;45.328;5.558;2022-11-24T01:48:46;7.00;99.90
7738;DHT22;29398;45.328;5.558;2022-11-24T01:49:51;7.00;99.90
7738;DHT22;29398;45.328;5.558;2022-11-24T01:50:58;7.00;99.90
7738;DHT22;29398;45.328;5.558;2022-11-24T01:52:07;6.90;99.90
7738;DHT22;29398;45.328;5.558;2022-11-24T01:53:10;6.90;99.90
7738;DHT22;29398;45.328;5.558;2022-11-24T01:54:17;7.00;99.90
7738;DHT22;29398;45.328;5.558;2022-11-24T01:55:23;6.90;99.90
7738;DHT22;29398;45.328;5.558;2022-11-24T01:56:25;6.90;99.90
7738;DHT22;29398;45.328;5.558;2022-11-24T01:57:30;6.90;99.90
7738;DHT22;29398;45.328;5.558;2022-11-24T01:58:33;6.90;99.90
7738;DHT22;29398;45.328;5.558;2022-11-24T01:59:38;6.90;99.90
7738;DHT22;29398;45.328;5.558;2022-11-24T02:00:41;6.90;99.90
7738;DHT22;29398;45.328;5.558;2022-11-24T02:01:45;6.90;99.90
7738;DHT22;29398;45.328;5.558;2022-11-24T02:02:48;6.90;99.90
7738;DHT22;29398;45.328;5.558;2022-11-24T06:42:06;6.80;99.90
7738;DHT22;29398;45.328;5.558;2022-11-24T06:43:08;6.80;99.90
7738;DHT22;29398;45.328;5.558;2022-11-24T06:44:09;6.80;99.90
7738;DHT22;29398;45.328;5.558;2022-11-24T06:45:11;6.80;99.90
7738;DHT22;29398;45.328;5.558;2022-11-24T06:46:13;6.80;99.90
7738;DHT22;29398;45.328;5.558;2022-11-24T06:47:15;6.90;99.90
7738;DHT22;29398;45.328;5.558;2022-11-24T06:48:16;6.90;99.90
7738;DHT22;29398;45.328;5.558;2022-11-24T06:49:18;6.80;99.90
7738;DHT22;29398;45.328;5.558;2022-11-24T06:50:20;6.90;99.90
7738;DHT22;29398;45.328;5.558;2022-11-24T06:51:22;6.90;99.90
7738;DHT22;29398;45.328;5.558;2022-11-24T06:52:23;6.90;99.90
7738;DHT22;29398;45.328;5.558;2022-11-24T06:53:25;6.90;99.90
7738;DHT22;29398;45.328;5.558;2022-11-24T06:54:26;6.90;99.90
7738;DHT22;29398;45.328;5.558;2022-11-24T06:55:28;6.90;99.90
7738;DHT22;29398;45.328;5.558;2022-11-24T06:56:29;6.90;99.90
7738;DHT22;29398;45.328;5.558;2022-11-24T06:57:32;6.90;99.90
7738;DHT22;29398;45.328;5.558;2022-11-24T06:58:39;6.90;99.90
7738;DHT22;29398;45.328;5.558;2022-11-24T06:59:41;6.80;99.90
7738;DHT22;29398;45.328;5.558;2022-11-24T07:00:43;6.80;99.90
7738;DHT22;29398;45.328;5.558;2022-11-24T07:01:44;6.80;99.90
7738;DHT22;29398;45.328;5.558;2022-11-24T07:02:46;6.80;99.90
7738;DHT22;29398;45.328;5.558;2022-11-24T07:03:48;6.70;99.90
7738;DHT22;29398;45.328;5.558;2022-11-24T07:04:50;6.70;99.90
7738;DHT22;29398;45.328;5.558;2022-11-24T07:05:55;6.60;99.90
7738;DHT22;29398;45.328;5.558;2022-11-24T07:06:57;6.60;99.90
7738;DHT22;29398;45.328;5.558;2022-11-24T07:07:59;6.60;99.90
7738;DHT22;29398;45.328;5.558;2022-11-24T07:09:00;6.60;99.90
7738;DHT22;29398;45.328;5.558;2022-11-24T07:10:02;6.60;99.90
7738;DHT22;29398;45.328;5.558;2022-11-24T07:11:04;6.70;99.90
7738;DHT22;29398;45.328;5.558;2022-11-24T07:12:06;6.70;99.90
7738;DHT22;29398;45.328;5.558;2022-11-24T07:13:10;6.70;99.90
7738;DHT22;29398;45.328;5.558;2022-11-24T07:14:11;6.70;99.90
7738;DHT22;29398;45.328;5.558;2022-11-24T07:15:13;6.70;99.90
7738;DHT22;29398;45.328;5.558;2022-11-24T07:16:16;6.70;99.90
7738;DHT22;29398;45.328;5.558;2022-11-24T07:17:18;6.70;99.90
7738;DHT22;29398;45.328;5.558;2022-11-24T07:18:19;6.70;99.90
7738;DHT22;29398;45.328;5.558;2022-11-24T07:19:22;6.70;99.90
7738;DHT22;29398;45.328;5.558;2022-11-24T07:20:23;6.70;99.90
7738;DHT22;29398;45.328;5.558;2022-11-24T07:21:26;6.80;99.90
7738;DHT22;29398;45.328;5.558;2022-11-24T07:22:28;6.80;99.90
7738;DHT22;29398;45.328;5.558;2022-11-24T07:23:29;6.80;99.90
7738;DHT22;29398;45.328;5.558;2022-11-24T07:24:31;6.80;99.90
7738;DHT22;29398;45.328;5.558;2022-11-24T07:25:32;6.80;99.90
7738;DHT22;29398;45.328;5.558;2022-11-24T07:26:34;6.90;99.90
7738;DHT22;29398;45.328;5.558;2022-11-24T07:27:37;6.90;99.90
7738;DHT22;29398;45.328;5.558;2022-11-24T07:28:40;6.80;99.90
7738;DHT22;29398;45.328;5.558;2022-11-24T07:29:41;6.90;99.90
7738;DHT22;29398;45.328;5.558;2022-11-24T07:30:43;6.90;99.90
7738;DHT22;29398;45.328;5.558;2022-11-24T07:31:44;6.90;99.90
7738;DHT22;29398;45.328;5.558;2022-11-24T07:32:46;6.90;99.90
7738;DHT22;29398;45.328;5.558;2022-11-24T07:33:49;6.90;99.90
7738;DHT22;29398;45.328;5.558;2022-11-24T07:34:51;6.90;99.90
7738;DHT22;29398;45.328;5.558;2022-11-24T07:35:53;7.00;99.90
7738;DHT22;29398;45.328;5.558;2022-11-24T07:36:55;7.00;99.90
7738;DHT22;29398;45.328;5.558;2022-11-24T07:37:58;7.10;99.90
7738;DHT22;29398;45.328;5.558;2022-11-24T07:38:59;7.10;99.90
7738;DHT22;29398;45.328;5.558;2022-11-24T07:40:01;7.10;99.90
7738;DHT22;29398;45.328;5.558;2022-11-24T07:41:03;7.00;99.90
7738;DHT22;29398;45.328;5.558;2022-11-24T07:42:06;7.00;99.90
7738;DHT22;29398;45.328;5.558;2022-11-24T07:43:09;7.10;99.90
7738;DHT22;29398;45.328;5.558;2022-11-24T07:44:12;7.10;99.90
7738;DHT22;29398;45.328;5.558;2022-11-24T07:45:15;7.10;99.90
7738;DHT22;29398;45.328;5.558;2022-11-24T07:46:18;7.10;99.90
7738;DHT22;29398;45.328;5.558;2022-11-24T07:47:19;7.10;99.90
7738;DHT22;29398;45.328;5.558;2022-11-24T07:48:22;7.20;99.90
7738;DHT22;29398;45.328;5.558;2022-11-24T07:49:24;7.20;99.90
7738;DHT22;29398;45.328;5.558;2022-11-24T07:50:26;7.30;99.90
7738;DHT22;29398;45.328;5.558;2022-11-24T07:51:28;7.30;99.90
7738;DHT22;29398;45.328;5.558;2022-11-24T07:52:29;7.30;99.90
7738;DHT22;29398;45.328;5.558;2022-11-24T07:53:31;7.30;99.90
7738;DHT22;29398;45.328;5.558;2022-11-24T07:54:32;7.40;99.90
7738;DHT22;29398;45.328;5.558;2022-11-24T07:55:34;7.40;99.90
7738;DHT22;29398;45.328;5.558;2022-11-24T07:56:36;7.40;99.90
7738;DHT22;29398;45.328;5.558;2022-11-24T07:57:37;7.40;99.90
7738;DHT22;29398;45.328;5.558;2022-11-24T07:58:40;7.40;99.90
7738;DHT22;29398;45.328;5.558;2022-11-24T07:59:43;7.40;99.90
7738;DHT22;29398;45.328;5.558;2022-11-24T08:00:45;7.40;99.90
7738;DHT22;29398;45.328;5.558;2022-11-24T08:01:46;7.50;99.90
7738;DHT22;29398;45.328;5.558;2022-11-24T08:02:48;7.50;99.90
7738;DHT22;29398;45.328;5.558;2022-11-24T08:03:50;7.60;99.90
7738;DHT22;29398;45.328;5.558;2022-11-24T08:04:52;7.60;99.90
7738;DHT22;29398;45.328;5.558;2022-11-24T08:05:53;7.70;99.90
7738;DHT22;29398;45.328;5.558;2022-11-24T08:06:55;7.80;99.90
7738;DHT22;29398;45.328;5.558;2022-11-24T08:07:59;7.70;99.90
7738;DHT22;29398;45.328;5.558;2022-11-24T08:09:01;7.70;99.90
7738;DHT22;29398;45.328;5.558;2022-11-24T08:10:02;7.80;99.90
7738;DHT22;29398;45.328;5.558;2022-11-24T08:11:05;7.80;99.90
7738;DHT22;29398;45.328;5.558;2022-11-24T08:12:07;7.70;99.90
7738;DHT22;29398;45.328;5.558;2022-11-24T08:13:09;7.70;99.90
7738;DHT22;29398;45.328;5.558;2022-11-24T08:14:10;7.70;99.90
7738;DHT22;29398;45.328;5.558;2022-11-24T08:15:13;7.80;99.90
7738;DHT22;29398;45.328;5.558;2022-11-24T08:16:15;7.80;99.90
7738;DHT22;29398;45.328;5.558;2022-11-24T08:17:18;7.80;99.90
7738;DHT22;29398;45.328;5.558;2022-11-24T08:18:19;7.80;99.90
7738;DHT22;29398;45.328;5.558;2022-11-24T08:19:22;7.90;99.90
7738;DHT22;29398;45.328;5.558;2022-11-24T08:20:24;8.00;99.90
7738;DHT22;29398;45.328;5.558;2022-11-24T08:21:26;7.90;99.90
7738;DHT22;29398;45.328;5.558;2022-11-24T08:22:28;8.00;99.90
7738;DHT22;29398;45.328;5.558;2022-11-24T08:23:30;8.10;99.90
7738;DHT22;29398;45.328;5.558;2022-11-24T08:24:32;8.20;99.90
7738;DHT22;29398;45.328;5.558;2022-11-24T08:25:33;8.30;99.90
7738;DHT22;29398;45.328;5.558;2022-11-24T08:26:36;8.40;99.90
7738;DHT22;29398;45.328;5.558;2022-11-24T08:27:38;8.50;99.90
7738;DHT22;29398;45.328;5.558;2022-11-24T08:28:39;8.70;99.90
7738;DHT22;29398;45.328;5.558;2022-11-24T08:29:41;8.80;99.90
7738;DHT22;29398;45.328;5.558;2022-11-24T08:30:45;8.90;99.90
7738;DHT22;29398;45.328;5.558;2022-11-24T08:31:47;9.00;99.90
7738;DHT22;29398;45.328;5.558;2022-11-24T08:32:48;9.10;99.90
7738;DHT22;29398;45.328;5.558;2022-11-24T08:33:50;9.30;99.90
7738;DHT22;29398;45.328;5.558;2022-11-24T08:34:51;9.30;99.90
7738;DHT22;29398;45.328;5.558;2022-11-24T08:35:53;9.40;99.90
7738;DHT22;29398;45.328;5.558;2022-11-24T08:36:54;9.60;99.90
7738;DHT22;29398;45.328;5.558;2022-11-24T08:37:56;9.90;99.90
7738;DHT22;29398;45.328;5.558;2022-11-24T08:38:58;10.20;99.90
7738;DHT22;29398;45.328;5.558;2022-11-24T08:40:00;10.40;99.90
7738;DHT22;29398;45.328;5.558;2022-11-24T08:41:02;10.70;99.90
7738;DHT22;29398;45.328;5.558;2022-11-24T08:42:04;10.70;99.90
7738;DHT22;29398;45.328;5.558;2022-11-24T08:43:05;10.60;99.90
7738;DHT22;29398;45.328;5.558;2022-11-24T08:44:07;10.60;99.90
7738;DHT22;29398;45.328;5.558;2022-11-24T08:45:10;10.50;99.90
7738;DHT22;29398;45.328;5.558;2022-11-24T08:46:16;10.60;99.90
7738;DHT22;29398;45.328;5.558;2022-11-24T08:47:17;10.60;99.90
7738;DHT22;29398;45.328;5.558;2022-11-24T08:48:21;10.60;99.90
7738;DHT22;29398;45.328;5.558;2022-11-24T08:49:22;10.50;99.90
7738;DHT22;29398;45.328;5.558;2022-11-24T08:50:24;10.50;99.90
7738;DHT22;29398;45.328;5.558;2022-11-24T08:51:26;10.60;99.90
7738;DHT22;29398;45.328;5.558;2022-11-24T08:52:28;10.60;99.90
7738;DHT22;29398;45.328;5.558;2022-11-24T08:53:30;10.70;99.90
7738;DHT22;29398;45.328;5.558;2022-11-24T08:54:32;10.80;99.90
7738;DHT22;29398;45.328;5.558;2022-11-24T08:55:33;10.80;99.90
7738;DHT22;29398;45.328;5.558;2022-11-24T08:56:35;11.00;99.90
7738;DHT22;29398;45.328;5.558;2022-11-24T08:57:36;11.00;99.90
7738;DHT22;29398;45.328;5.558;2022-11-24T08:58:39;11.00;99.90
7738;DHT22;29398;45.328;5.558;2022-11-24T08:59:41;11.10;99.90
7738;DHT22;29398;45.328;5.558;2022-11-24T09:00:43;11.10;99.90
7738;DHT22;29398;45.328;5.558;2022-11-24T09:01:46;11.00;99.90
7738;DHT22;29398;45.328;5.558;2022-11-24T09:02:53;11.10;99.90
7738;DHT22;29398;45.328;5.558;2022-11-24T09:03:55;11.00;99.90
7738;DHT22;29398;45.328;5.558;2022-11-24T09:04:57;10.90;99.90
7738;DHT22;29398;45.328;5.558;2022-11-24T09:05:58;10.80;99.90
7738;DHT22;29398;45.328;5.558;2022-11-24T09:07:00;10.90;99.90
7738;DHT22;29398;45.328;5.558;2022-11-24T09:08:02;11.00;99.90
7738;DHT22;29398;45.328;5.558;2022-11-24T09:09:04;11.20;99.90
7738;DHT22;29398;45.328;5.558;2022-11-24T09:10:07;11.30;99.90
7738;DHT22;29398;45.328;5.558;2022-11-24T09:11:10;11.40;99.90
7738;DHT22;29398;45.328;5.558;2022-11-24T09:12:12;11.80;99.90
7738;DHT22;29398;45.328;5.558;2022-11-24T09:13:14;11.90;99.90
7738;DHT22;29398;45.328;5.558;2022-11-24T09:14:15;12.20;99.90
7738;DHT22;29398;45.328;5.558;2022-11-24T09:15:17;12.60;99.90
7738;DHT22;29398;45.328;5.558;2022-11-24T09:16:21;12.90;99.90
7738;DHT22;29398;45.328;5.558;2022-11-24T09:17:25;13.00;99.90
7738;DHT22;29398;45.328;5.558;2022-11-24T09:18:26;13.00;99.90
7738;DHT22;29398;45.328;5.558;2022-11-24T09:19:28;13.10;99.90
7738;DHT22;29398;45.328;5.558;2022-11-24T09:20:30;13.20;99.90
7738;DHT22;29398;45.328;5.558;2022-11-24T09:21:33;13.20;99.90
7738;DHT22;29398;45.328;5.558;2022-11-24T09:23:42;13.70;99.90
7738;DHT22;29398;45.328;5.558;2022-11-24T09:24:44;13.70;99.90
7738;DHT22;29398;45.328;5.558;2022-11-24T09:25:46;13.60;99.90
7738;DHT22;29398;45.328;5.558;2022-11-24T09:26:47;13.30;99.90
7738;DHT22;29398;45.328;5.558;2022-11-24T09:27:49;13.30;99.90
7738;DHT22;29398;45.328;5.558;2022-11-24T09:28:51;13.40;99.90
7738;DHT22;29398;45.328;5.558;2022-11-24T09:29:54;13.40;99.90
7738;DHT22;29398;45.328;5.558;2022-11-24T09:31:00;13.30;99.90
7738;DHT22;29398;45.328;5.558;2022-11-24T09:32:02;13.00;99.90
7738;DHT22;29398;45.328;5.558;2022-11-24T09:33:05;12.90;99.90
7738;DHT22;29398;45.328;5.558;2022-11-24T09:34:09;12.80;99.90
7738;DHT22;29398;45.328;5.558;2022-11-24T09:35:11;12.90;99.90
7738;DHT22;29398;45.328;5.558;2022-11-24T09:36:13;13.00;99.90
7738;DHT22;29398;45.328;5.558;2022-11-24T09:37:15;13.10;99.90
7738;DHT22;29398;45.328;5.558;2022-11-24T09:38:17;13.10;99.90
7738;DHT22;29398;45.328;5.558;2022-11-24T09:39:18;13.30;99.90
7738;DHT22;29398;45.328;5.558;2022-11-24T09:40:21;13.40;99.90
7738;DHT22;29398;45.328;5.558;2022-11-24T09:41:40;13.50;99.90
7738;DHT22;29398;45.328;5.558;2022-11-24T09:42:54;13.60;99.90
7738;DHT22;29398;45.328;5.558;2022-11-24T09:44:06;13.60;99.90
7738;DHT22;29398;45.328;5.558;2022-11-24T09:45:19;13.50;99.90
7738;DHT22;29398;45.328;5.558;2022-11-24T09:46:29;13.60;99.90
7738;DHT22;29398;45.328;5.558;2022-11-24T09:47:40;13.70;99.90
7738;DHT22;29398;45.328;5.558;2022-11-24T09:48:49;13.70;99.90
7738;DHT22;29398;45.328;5.558;2022-11-24T09:49:57;13.70;99.90
7738;DHT22;29398;45.328;5.558;2022-11-24T09:51:01;13.60;99.90
7738;DHT22;29398;45.328;5.558;2022-11-24T09:52:09;13.50;99.90
7738;DHT22;29398;45.328;5.558;2022-11-24T09:53:15;13.50;99.90
7738;DHT22;29398;45.328;5.558;2022-11-24T09:54:22;13.50;99.90
7738;DHT22;29398;45.328;5.558;2022-11-24T09:55:30;13.30;99.90
7738;DHT22;29398;45.328;5.558;2022-11-24T09:56:34;13.10;99.90
7738;DHT22;29398;45.328;5.558;2022-11-24T09:57:38;12.80;99.90
7738;DHT22;29398;45.328;5.558;2022-11-24T09:58:43;12.60;99.90
7738;DHT22;29398;45.328;5.558;2022-11-24T09:59:47;12.60;99.90
7738;DHT22;29398;45.328;5.558;2022-11-24T10:00:51;12.70;99.90
7738;DHT22;29398;45.328;5.558;2022-11-24T10:01:54;12.80;99.90
7738;DHT22;29398;45.328;5.558;2022-11-24T10:02:56;12.80;99.90
7738;DHT22;29398;45.328;5.558;2022-11-24T10:04:00;12.90;99.90
7738;DHT22;29398;45.328;5.558;2022-11-24T10:05:04;13.00;99.90
7738;DHT22;29398;45.328;5.558;2022-11-24T10:06:18;13.10;99.90
7738;DHT22;29398;45.328;5.558;2022-11-24T10:07:26;13.10;99.90
7738;DHT22;29398;45.328;5.558;2022-11-24T10:08:53;12.80;99.90
7738;DHT22;29398;45.328;5.558;2022-11-24T10:10:05;12.60;99.90
7738;DHT22;29398;45.328;5.558;2022-11-24T10:11:15;12.60;99.90
7738;DHT22;29398;45.328;5.558;2022-11-24T10:12:29;12.40;99.90
7738;DHT22;29398;45.328;5.558;2022-11-24T10:13:49;12.40;99.90
7738;DHT22;29398;45.328;5.558;2022-11-24T10:15:18;12.20;99.90
7738;DHT22;29398;45.328;5.558;2022-11-24T10:16:35;12.10;99.90
7738;DHT22;29398;45.328;5.558;2022-11-24T10:17:48;12.00;99.90
7738;DHT22;29398;45.328;5.558;2022-11-24T10:19:00;12.00;99.90
7738;DHT22;29398;45.328;5.558;2022-11-24T10:20:11;11.70;99.90
7738;DHT22;29398;45.328;5.558;2022-11-24T10:21:31;11.50;99.90
7738;DHT22;29398;45.328;5.558;2022-11-24T10:22:44;11.40;99.90
7738;DHT22;29398;45.328;5.558;2022-11-24T10:24:06;11.50;99.90
7738;DHT22;29398;45.328;5.558;2022-11-24T10:25:20;11.50;99.90
7738;DHT22;29398;45.328;5.558;2022-11-24T10:26:30;11.70;99.90
7738;DHT22;29398;45.328;5.558;2022-11-24T10:27:38;12.10;99.90
7738;DHT22;29398;45.328;5.558;2022-11-24T10:28:45;12.10;99.90
7738;DHT22;29398;45.328;5.558;2022-11-24T10:29:51;12.40;99.90
7738;DHT22;29398;45.328;5.558;2022-11-24T10:31:04;12.70;99.90
7738;DHT22;29398;45.328;5.558;2022-11-24T10:32:17;13.70;99.90
7738;DHT22;29398;45.328;5.558;2022-11-24T10:33:20;13.90;99.90
7738;DHT22;29398;45.328;5.558;2022-11-24T10:34:28;14.70;99.90
7738;DHT22;29398;45.328;5.558;2022-11-24T10:35:36;16.30;99.90
7738;DHT22;29398;45.328;5.558;2022-11-24T10:36:44;16.30;99.90
7738;DHT22;29398;45.328;5.558;2022-11-24T10:37:53;17.30;99.80
7738;DHT22;29398;45.328;5.558;2022-11-24T10:39:02;17.70;99.90
7738;DHT22;29398;45.328;5.558;2022-11-24T10:40:11;17.70;99.90
7738;DHT22;29398;45.328;5.558;2022-11-24T10:41:18;18.50;99.90
7738;DHT22;29398;45.328;5.558;2022-11-24T10:42:25;18.90;98.30
7738;DHT22;29398;45.328;5.558;2022-11-24T10:43:28;19.00;99.90
7738;DHT22;29398;45.328;5.558;2022-11-24T10:44:30;19.40;98.00
7738;DHT22;29398;45.328;5.558;2022-11-24T10:45:31;19.70;99.90
7738;DHT22;29398;45.328;5.558;2022-11-24T10:46:33;19.80;95.80
7738;DHT22;29398;45.328;5.558;2022-11-24T10:47:34;19.90;98.30
7738;DHT22;29398;45.328;5.558;2022-11-24T10:48:39;19.70;92.80
7738;DHT22;29398;45.328;5.558;2022-11-24T10:49:47;19.00;92.90
7738;DHT22;29398;45.328;5.558;2022-11-24T10:50:56;18.30;92.30
7738;DHT22;29398;45.328;5.558;2022-11-24T10:52:05;17.80;99.80
7738;DHT22;29398;45.328;5.558;2022-11-24T10:53:15;17.60;95.80
7738;DHT22;29398;45.328;5.558;2022-11-24T10:54:19;17.40;97.10
7738;DHT22;29398;45.328;5.558;2022-11-24T10:55:22;16.80;94.60
7738;DHT22;29398;45.328;5.558;2022-11-24T10:56:24;16.50;95.30
7738;DHT22;29398;45.328;5.558;2022-11-24T10:57:28;16.00;97.30
7738;DHT22;29398;45.328;5.558;2022-11-24T10:58:32;16.00;98.00
7738;DHT22;29398;45.328;5.558;2022-11-24T10:59:36;16.00;97.50
7738;DHT22;29398;45.328;5.558;2022-11-24T11:00:37;15.70;98.70
7738;DHT22;29398;45.328;5.558;2022-11-24T11:01:39;15.70;97.50
7738;DHT22;29398;45.328;5.558;2022-11-24T11:02:40;15.80;99.60
7738;DHT22;29398;45.328;5.558;2022-11-24T11:03:45;15.90;99.40
7738;DHT22;29398;45.328;5.558;2022-11-24T11:04:49;16.10;99.90
7738;DHT22;29398;45.328;5.558;2022-11-24T11:05:51;16.20;98.10
7738;DHT22;29398;45.328;5.558;2022-11-24T11:07:15;16.40;99.90
7738;DHT22;29398;45.328;5.558;2022-11-24T11:08:21;16.80;98.10
7738;DHT22;29398;45.328;5.558;2022-11-24T11:09:22;17.00;99.10
7738;DHT22;29398;45.328;5.558;2022-11-24T11:10:24;17.20;98.70
7738;DHT22;29398;45.328;5.558;2022-11-24T11:11:27;17.30;98.80
7738;DHT22;29398;45.328;5.558;2022-11-24T11:12:29;17.50;98.70
7738;DHT22;29398;45.328;5.558;2022-11-24T11:13:30;17.70;95.80
7738;DHT22;29398;45.328;5.558;2022-11-24T11:14:33;18.00;97.30
7738;DHT22;29398;45.328;5.558;2022-11-24T11:15:36;18.30;94.00
7738;DHT22;29398;45.328;5.558;2022-11-24T11:16:40;18.60;94.90
7738;DHT22;29398;45.328;5.558;2022-11-24T11:17:43;18.80;96.20
7738;DHT22;29398;45.328;5.558;2022-11-24T11:18:46;19.30;92.60
7738;DHT22;29398;45.328;5.558;2022-11-24T11:19:51;19.60;92.30
7738;DHT22;29398;45.328;5.558;2022-11-24T11:20:53;20.10;93.50
7738;DHT22;29398;45.328;5.558;2022-11-24T11:22:01;20.50;92.00
7738;DHT22;29398;45.328;5.558;2022-11-24T11:23:13;20.80;92.00
7738;DHT22;29398;45.328;5.558;2022-11-24T11:24:17;21.20;91.10
7738;DHT22;29398;45.328;5.558;2022-11-24T11:25:21;21.70;91.60
7738;DHT22;29398;45.328;5.558;2022-11-24T11:26:35;21.40;85.80
7738;DHT22;29398;45.328;5.558;2022-11-24T11:27:38;21.80;87.00
7738;DHT22;29398;45.328;5.558;2022-11-24T11:28:40;22.20;91.90
7738;DHT22;29398;45.328;5.558;2022-11-24T11:29:43;22.80;86.40
7738;DHT22;29398;45.328;5.558;2022-11-24T11:30:55;22.90;84.10
7738;DHT22;29398;45.328;5.558;2022-11-24T11:32:01;22.80;78.30